Terminal Aerodrome Forecast
Issued by NWS

Home | Current Version | Previous Version | Text Only | Print | Product List | Glossary On
Versions: 1 2 3 4 5 6 7 8 9 10 11 12 13 14 15 16 17 18 19 20 21 22 23 24
000
FTAK31 PANC 142329
TAFATK
TAF
PATK 142329Z 1500/1524 00000KT P6SM OVC060
     FM150100 VRB03KT P6SM VCSH SCT035 OVC040
     FM150300 00000KT 4SM -SN OVC025
     FM150500 16002KT 2SM -SN BR OVC015
     FM150900 00000KT P6SM -SN OVC030
     FM151400 01006KT P6SM BKN040=

USA.gov is the U.S. government's official web portal to all federal, state and local government web resources and services.